Time;durP1;ratioP1;P1;durP2;ratioP2;P2;SDS_P1;SDS_P2;PMS_P1;PMS_P2;Temp;Humidity;BMP_temperature;BMP_pressure;BME280_temperature;BME280_humidity;BME280_pressure;Samples;Min_cycle;Max_cycle;Signal;HPM_P1;HPM_P2
2023/06/11 20:25:48;;;;;;;11.57;6.00;;;;;;;;;;4425290;32;20064;-81
2023/06/11 20:28:13;;;;;;;7.50;6.70;;;;;;;;;;4421311;32;20038;-81
2023/06/11 20:30:38;;;;;;;8.47;6.33;;;;;;;;;;4420287;32;20175;-80
2023/06/11 20:33:03;;;;;;;9.95;6.60;;;;;;;;;;4422583;32;20125;-81
2023/06/11 20:35:28;;;;;;;10.37;5.93;;;;;;;;;;4420787;32;20087;-81
2023/06/11 20:37:54;;;;;;;7.97;6.68;;;;;;;;;;4419110;32;20126;-81
2023/06/11 20:40:19;;;;;;;10.77;6.90;;;;;;;;;;4418745;32;20060;-79
2023/06/11 20:42:44;;;;;;;11.55;6.47;;;;;;;;;;4418783;32;20408;-78
2023/06/11 20:45:10;;;;;;;7.90;6.03;;;;;;;;;;4418650;32;20158;-81
2023/06/11 20:47:35;;;;;;;10.52;6.95;;;;;;;;;;4419973;32;20149;-80
2023/06/11 20:50:00;;;;;;;7.63;6.67;;;;;;;;;;4405387;32;20057;-81
2023/06/11 20:52:28;;;;;;;9.35;6.55;;;;;;;;;;4402151;32;20129;-81
2023/06/11 20:54:53;;;;;;;8.70;6.93;;;;;;;;;;4416354;32;20071;-82
2023/06/11 20:57:19;;;;;;;8.43;6.33;;;;;;;;;;4419165;32;20416;-80
2023/06/11 20:59:44;;;;;;;12.10;6.60;;;;;;;;;;4420297;32;20204;-81
2023/06/11 21:02:09;;;;;;;10.25;7.75;;;;;;;;;;4410636;32;20082;-80
2023/06/11 21:04:35;;;;;;;10.83;6.90;;;;;;;;;;4419318;32;20026;-80
2023/06/11 21:07:00;;;;;;;9.57;6.32;;;;;;;;;;4421448;32;20606;-80
2023/06/11 21:09:25;;;;;;;8.88;6.37;;;;;;;;;;4413843;32;20030;-81
2023/06/11 21:11:54;;;;;;;10.10;6.80;;;;;;;;;;4424099;32;20056;-81
2023/06/11 21:14:20;;;;;;;12.32;6.82;;;;;;;;;;4413075;32;20053;-80
2023/06/11 21:16:45;;;;;;;7.43;6.15;;;;;;;;;;4411654;32;20058;-80
2023/06/11 21:19:10;;;;;;;8.87;6.37;;;;;;;;;;4408686;32;20446;-79
2023/06/11 21:21:36;;;;;;;11.17;6.77;;;;;;;;;;4396354;32;20153;-80
2023/06/11 21:24:02;;;;;;;11.93;6.68;;;;;;;;;;4402271;32;20176;-81
2023/06/11 21:26:27;;;;;;;8.25;6.07;;;;;;;;;;4402372;32;20101;-80
2023/06/11 21:28:53;;;;;;;9.83;6.03;;;;;;;;;;4396485;32;20030;-81
2023/06/11 21:31:18;;;;;;;8.98;5.85;;;;;;;;;;4396361;32;20126;-80
2023/06/11 21:33:43;;;;;;;7.25;5.90;;;;;;;;;;4398692;32;20149;-81
2023/06/11 21:36:08;;;;;;;7.20;5.23;;;;;;;;;;4397502;32;20072;-80
2023/06/11 21:38:33;;;;;;;9.05;5.95;;;;;;;;;;4394480;32;20119;-80
2023/06/11 21:40:59;;;;;;;12.07;5.95;;;;;;;;;;4393046;32;20031;-81
2023/06/11 21:43:24;;;;;;;8.00;5.47;;;;;;;;;;4392554;32;20065;-81
2023/06/11 21:45:49;;;;;;;5.53;5.03;;;;;;;;;;4394236;32;20082;-82
2023/06/11 21:48:15;;;;;;;8.00;5.85;;;;;;;;;;4394361;32;20174;-82
2023/06/11 21:50:40;;;;;;;10.90;5.62;;;;;;;;;;4391618;32;20054;-81
2023/06/11 21:53:07;;;;;;;8.07;5.15;;;;;;;;;;4393567;32;20099;-80
2023/06/11 21:55:32;;;;;;;10.70;5.55;;;;;;;;;;4396226;32;20034;-80
2023/06/11 21:58:02;;;;;;;11.03;5.93;;;;;;;;;;4392626;32;20357;-80
2023/06/11 22:00:28;;;;;;;6.75;5.40;;;;;;;;;;4404238;32;20146;-81
2023/06/11 22:02:53;;;;;;;6.60;5.57;;;;;;;;;;4407695;32;20034;-80
2023/06/11 22:05:20;;;;;;;10.98;5.82;;;;;;;;;;4408487;32;20026;-82
2023/06/11 22:07:46;;;;;;;13.55;5.68;;;;;;;;;;4405896;32;20030;-81
2023/06/11 22:10:11;;;;;;;7.35;6.00;;;;;;;;;;4392138;32;20341;-81
2023/06/11 22:12:39;;;;;;;10.07;5.87;;;;;;;;;;4393545;32;20030;-80
2023/06/11 22:15:05;;;;;;;8.70;6.15;;;;;;;;;;4397560;32;20129;-81
2023/06/11 22:17:34;;;;;;;10.25;5.97;;;;;;;;;;4394751;32;20152;-81
2023/06/11 22:20:06;;;;;;;8.40;5.60;;;;;;;;;;4391658;32;20046;-81
2023/06/11 22:22:31;;;;;;;6.07;5.28;;;;;;;;;;4394301;32;20015;-80
2023/06/11 22:24:57;;;;;;;8.80;5.87;;;;;;;;;;4392130;32;20077;-82
2023/06/11 22:27:24;;;;;;;10.18;6.10;;;;;;;;;;4394106;32;20118;-79
2023/06/11 22:29:50;;;;;;;9.93;6.32;;;;;;;;;;4403528;32;20030;-79
2023/06/11 22:32:15;;;;;;;6.82;5.53;;;;;;;;;;4396595;32;20031;-80
2023/06/11 22:34:40;;;;;;;6.40;5.77;;;;;;;;;;4386114;32;20089;-81
2023/06/11 22:37:05;;;;;;;7.70;4.97;;;;;;;;;;4378384;32;20541;-80
2023/06/11 22:39:31;;;;;;;9.27;5.32;;;;;;;;;;4388157;32;20026;-81
2023/06/11 22:41:56;;;;;;;11.80;6.15;;;;;;;;;;4384672;32;20027;-80
2023/06/11 22:44:21;;;;;;;10.07;5.33;;;;;;;;;;4379807;32;20035;-80
2023/06/11 22:46:46;;;;;;;10.38;5.43;;;;;;;;;;4386921;32;20118;-80
2023/06/11 22:49:11;;;;;;;7.37;5.70;;;;;;;;;;4380163;32;20058;-80
2023/06/11 22:51:36;;;;;;;7.90;5.67;;;;;;;;;;4386685;32;20145;-80
2023/06/11 22:54:02;;;;;;;9.17;5.70;;;;;;;;;;4392349;32;20172;-82
2023/06/11 22:56:27;;;;;;;9.73;5.00;;;;;;;;;;4384999;32;20157;-80
2023/06/11 22:58:52;;;;;;;8.77;5.37;;;;;;;;;;4383378;32;20574;-80
2023/06/11 23:01:17;;;;;;;8.33;5.37;;;;;;;;;;4387829;32;20176;-80
2023/06/11 23:03:42;;;;;;;7.70;5.47;;;;;;;;;;4382552;32;20157;-81
2023/06/11 23:06:08;;;;;;;5.43;4.90;;;;;;;;;;4382961;32;20661;-79
2023/06/11 23:08:33;;;;;;;8.48;5.70;;;;;;;;;;4387401;32;20132;-80
2023/06/11 23:10:59;;;;;;;6.72;5.53;;;;;;;;;;4377082;32;20093;-80
2023/06/11 23:13:24;;;;;;;8.88;5.37;;;;;;;;;;4385538;32;20026;-80
2023/06/11 23:15:49;;;;;;;10.80;4.95;;;;;;;;;;4382145;32;20087;-80
2023/06/11 23:18:16;;;;;;;8.00;5.13;;;;;;;;;;4385401;32;20026;-81
2023/06/11 23:20:42;;;;;;;7.40;5.03;;;;;;;;;;4388064;32;20171;-80
2023/06/11 23:23:08;;;;;;;8.80;5.55;;;;;;;;;;4385725;32;20022;-80
2023/06/11 23:25:34;;;;;;;7.00;6.28;;;;;;;;;;4385905;32;20066;-81
2023/06/11 23:27:59;;;;;;;9.00;4.80;;;;;;;;;;4386902;32;20034;-80
2023/06/11 23:30:24;;;;;;;9.83;5.33;;;;;;;;;;4386859;32;20128;-81
2023/06/11 23:32:50;;;;;;;7.47;5.10;;;;;;;;;;4384965;32;20199;-81
2023/06/11 23:35:17;;;;;;;7.60;4.72;;;;;;;;;;4386584;32;20420;-81
2023/06/11 23:37:42;;;;;;;9.90;4.40;;;;;;;;;;4382195;32;20076;-80
2023/06/11 23:40:10;;;;;;;6.10;4.87;;;;;;;;;;4391815;32;20039;-80
2023/06/11 23:42:35;;;;;;;13.25;4.93;;;;;;;;;;4396526;32;20093;-81
2023/06/11 23:45:00;;;;;;;10.40;5.17;;;;;;;;;;4396522;32;20066;-80
2023/06/11 23:47:25;;;;;;;6.90;4.93;;;;;;;;;;4387540;32;20153;-79
2023/06/11 23:49:50;;;;;;;8.75;4.70;;;;;;;;;;4389762;32;20050;-81
2023/06/11 23:52:16;;;;;;;6.17;4.97;;;;;;;;;;4385983;32;20027;-79
2023/06/11 23:54:41;;;;;;;6.75;5.07;;;;;;;;;;4392385;32;20182;-78
2023/06/11 23:57:06;;;;;;;11.45;5.65;;;;;;;;;;4397554;32;20072;-80
2023/06/11 23:59:31;;;;;;;6.68;5.18;;;;;;;;;;4389286;32;20115;-78
